createdAt,value
2023-01-19T00:04:43.689Z,8.71
2023-01-19T00:10:26.981Z,8.71
2023-01-19T00:16:11.315Z,8.71
2023-01-19T00:21:54.582Z,8.7
2023-01-19T00:27:37.906Z,8.73
2023-01-19T00:33:21.198Z,8.74
2023-01-19T00:39:04.337Z,8.72
2023-01-19T00:44:47.655Z,8.72
2023-01-19T00:50:31.465Z,8.68
2023-01-19T00:56:14.683Z,8.65
2023-01-19T01:01:57.957Z,8.63
2023-01-19T01:07:42.562Z,8.58
2023-01-19T01:13:27.974Z,8.53
2023-01-19T01:19:12.920Z,8.51
2023-01-19T01:24:56.769Z,8.47
2023-01-19T01:30:40.145Z,8.47
2023-01-19T01:36:23.598Z,8.42
2023-01-19T01:42:13.559Z,8.39
2023-01-19T01:47:58.421Z,8.39
2023-01-19T01:53:43.311Z,8.35
2023-01-19T01:59:28.802Z,8.36
2023-01-19T02:05:15.948Z,8.32
2023-01-19T02:11:00.425Z,8.32
2023-01-19T02:16:43.897Z,8.29
2023-01-19T02:22:31.917Z,8.27
2023-01-19T02:28:15.393Z,8.26
2023-01-19T02:33:59.682Z,8.24
2023-01-19T02:39:45.030Z,8.2
2023-01-19T02:45:28.397Z,8.19
2023-01-19T02:51:14.050Z,8.15
2023-01-19T02:57:02.262Z,8.13
2023-01-19T03:02:50.255Z,8.14
2023-01-19T03:08:39.767Z,8.11
2023-01-19T03:14:26.410Z,8.08
2023-01-19T03:20:11.433Z,8.07
2023-01-19T03:25:55.834Z,8.03
2023-01-19T03:31:40.547Z,8.04
2023-01-19T03:37:25.887Z,8
2023-01-19T03:43:09.625Z,7.97
2023-01-19T03:48:53.289Z,7.98
2023-01-19T03:54:36.893Z,7.95
2023-01-19T04:00:20.610Z,7.98
2023-01-19T04:06:03.943Z,7.98
2023-01-19T04:11:47.252Z,7.97
2023-01-19T04:17:31.042Z,7.98
2023-01-19T04:23:14.240Z,8
2023-01-19T04:28:57.598Z,8.03
2023-01-19T04:34:40.957Z,8.06
2023-01-19T04:40:24.238Z,8.08
2023-01-19T04:46:07.508Z,8.11
2023-01-19T04:51:52.213Z,8.12
2023-01-19T04:57:35.561Z,8.15
2023-01-19T05:03:19.065Z,8.16
2023-01-19T05:09:03.113Z,8.17
2023-01-19T05:14:46.402Z,8.19
2023-01-19T05:20:29.709Z,8.2
2023-01-19T05:26:13.152Z,8.2
2023-01-19T05:31:56.658Z,8.25
2023-01-19T05:37:40.423Z,8.26
2023-01-19T05:43:23.747Z,8.26
2023-01-19T05:49:07.326Z,8.27
2023-01-19T05:54:50.797Z,8.28
2023-01-19T06:00:34.152Z,8.32
2023-01-19T06:06:17.500Z,8.33
2023-01-19T06:12:00.790Z,8.33
2023-01-19T06:17:43.949Z,8.34
2023-01-19T06:23:29.895Z,8.37
2023-01-19T06:29:13.310Z,8.67
2023-01-19T06:34:56.617Z,8.6
2023-01-19T06:40:39.912Z,8.52
2023-01-19T06:46:23.289Z,8.5
2023-01-19T06:52:06.509Z,8.53
2023-01-19T06:57:54.650Z,8.52
2023-01-19T07:03:37.977Z,8.52
2023-01-19T07:09:24.866Z,8.51
2023-01-19T07:15:10.342Z,8.49
2023-01-19T07:20:53.497Z,8.49
2023-01-19T07:26:36.609Z,8.48
2023-01-19T07:32:19.872Z,8.51
2023-01-19T07:38:03.723Z,8.53
2023-01-19T07:43:46.885Z,8.59
2023-01-19T07:49:30.200Z,8.56
2023-01-19T07:55:13.858Z,8.57
2023-01-19T08:00:57.352Z,8.61
2023-01-19T08:06:44.958Z,8.62
2023-01-19T08:12:28.450Z,8.66
2023-01-19T08:18:12.022Z,8.66
2023-01-19T08:23:56.254Z,8.67
2023-01-19T08:29:39.790Z,8.73
2023-01-19T08:35:23.041Z,8.75
2023-01-19T08:41:06.612Z,8.77
2023-01-19T08:46:50.686Z,8.79
2023-01-19T08:52:34.900Z,8.8
2023-01-19T08:58:18.082Z,8.84
2023-01-19T09:04:04.155Z,8.89
2023-01-19T09:09:48.316Z,8.92
2023-01-19T09:15:32.591Z,8.94
2023-01-19T09:21:16.276Z,8.97
2023-01-19T09:26:59.506Z,9.03
2023-01-19T09:32:42.973Z,9.07
2023-01-19T09:38:26.102Z,9.11
2023-01-19T09:44:13.934Z,9.15
2023-01-19T09:50:01.402Z,9.22
2023-01-19T09:55:44.669Z,9.29
2023-01-19T10:01:34.923Z,9.39
2023-01-19T10:07:24.935Z,9.46
2023-01-19T10:13:17.198Z,9.47
2023-01-19T10:19:02.070Z,9.56
2023-01-19T10:24:46.556Z,9.6
2023-01-19T10:30:30.948Z,9.74
2023-01-19T10:36:20.142Z,9.94
2023-01-19T10:42:06.049Z,10.09
2023-01-19T10:47:49.400Z,10.17
2023-01-19T10:53:33.207Z,10.28
2023-01-19T10:59:31.956Z,10.35
2023-01-19T11:05:26.225Z,10.44
2023-01-19T11:11:09.569Z,10.5
2023-01-19T11:16:54.975Z,10.52
2023-01-19T11:22:38.491Z,10.56
2023-01-19T11:28:26.705Z,10.63
2023-01-19T11:34:15.040Z,10.7
2023-01-19T11:39:59.894Z,10.85
2023-01-19T11:45:44.041Z,10.94
2023-01-19T11:51:29.834Z,11
2023-01-19T11:57:15.727Z,11.24
2023-01-19T12:03:01.259Z,11.68
2023-01-19T12:08:46.797Z,11.94
2023-01-19T12:14:34.394Z,11.93
2023-01-19T12:20:24.569Z,12.08
2023-01-19T12:26:14.970Z,12.24
2023-01-19T12:32:09.505Z,12.36
2023-01-19T12:37:52.892Z,12.57
2023-01-19T12:43:36.337Z,12.44
2023-01-19T12:49:23.457Z,12.29
2023-01-19T12:55:12.828Z,12.35
2023-01-19T13:01:09.023Z,12.55
2023-01-19T13:07:04.376Z,12.67
2023-01-19T13:12:58.663Z,12.59
2023-01-19T13:18:42.333Z,12.61
2023-01-19T13:24:31.331Z,12.63
2023-01-19T13:30:16.955Z,12.56
2023-01-19T13:36:00.462Z,12.46
2023-01-19T13:41:44.219Z,12.45
2023-01-19T13:47:31.394Z,12.41
2023-01-19T13:53:20.998Z,12.41
2023-01-19T13:59:06.072Z,12.45
2023-01-19T14:04:50.382Z,12.49
2023-01-19T14:10:34.372Z,12.51
2023-01-19T14:16:17.867Z,12.44
2023-01-19T14:22:02.360Z,12.35
2023-01-19T14:27:45.769Z,12.25
2023-01-19T14:33:40.255Z,12.21
2023-01-19T14:39:24.976Z,12.27
2023-01-19T14:45:15.862Z,12.27
2023-01-19T14:51:04.140Z,12.32
2023-01-19T14:56:47.250Z,12.35
2023-01-19T15:02:30.577Z,12.45
2023-01-19T15:08:16.629Z,12.44
2023-01-19T15:14:00.052Z,12.38
2023-01-19T15:19:43.422Z,12.28
2023-01-19T15:25:26.911Z,12.18
2023-01-19T15:31:13.234Z,12.13
2023-01-19T15:36:56.616Z,12.03
2023-01-19T15:42:40.025Z,11.92
2023-01-19T15:48:23.433Z,11.81
2023-01-19T15:54:10.260Z,11.68
2023-01-19T15:59:53.632Z,11.64
2023-01-19T16:05:42.729Z,11.54
2023-01-19T16:11:26.395Z,11.47
2023-01-19T16:17:09.658Z,11.39
2023-01-19T16:22:53.789Z,11.33
2023-01-19T16:28:55.125Z,11.3
2023-01-19T16:34:38.319Z,11.21
2023-01-19T16:40:21.657Z,11.11
2023-01-19T16:46:05.433Z,11.04
2023-01-19T16:51:49.334Z,10.94
2023-01-19T16:57:32.544Z,10.86
2023-01-19T17:03:15.886Z,10.8
2023-01-19T17:08:59.472Z,10.72
2023-01-19T17:14:42.830Z,10.66
2023-01-19T17:20:26.276Z,10.6
2023-01-19T17:26:10.337Z,10.54
2023-01-19T17:31:53.710Z,10.5
2023-01-19T17:37:37.034Z,10.42
2023-01-19T17:43:20.457Z,10.39
2023-01-19T17:49:05.131Z,10.38
2023-01-19T17:54:48.461Z,10.48
2023-01-19T18:00:31.860Z,10.5
2023-01-19T18:06:15.537Z,10.4
2023-01-19T18:11:58.906Z,10.29
2023-01-19T18:17:42.318Z,10.18
2023-01-19T18:23:25.923Z,10.07
2023-01-19T18:29:09.397Z,10.02
2023-01-19T18:34:53.206Z,9.94
2023-01-19T18:40:36.853Z,9.92
2023-01-19T18:46:20.098Z,9.85
2023-01-19T18:52:03.717Z,9.78
2023-01-19T18:57:47.085Z,9.72
2023-01-19T19:03:30.435Z,9.65
2023-01-19T19:09:14.070Z,9.62
2023-01-19T19:15:02.639Z,9.61
2023-01-19T19:20:46.337Z,9.58
2023-01-19T19:26:29.394Z,9.56
2023-01-19T19:32:12.756Z,9.54
2023-01-19T19:37:56.014Z,9.5
2023-01-19T19:43:40.009Z,9.45
2023-01-19T19:49:23.395Z,9.39
2023-01-19T19:55:07.789Z,9.34
2023-01-19T20:00:51.471Z,9.32
2023-01-19T20:06:35.472Z,9.25
2023-01-19T20:12:18.666Z,9.22
2023-01-19T20:18:01.862Z,9.19
2023-01-19T20:23:45.702Z,9.15
2023-01-19T20:29:29.015Z,9.14
2023-01-19T20:35:12.666Z,9.11
2023-01-19T20:40:56.956Z,9.13
2023-01-19T20:46:40.366Z,9.06
2023-01-19T20:52:23.801Z,9.01
2023-01-19T20:58:07.612Z,9
2023-01-19T21:03:51.622Z,8.96
2023-01-19T21:09:35.399Z,8.93
2023-01-19T21:15:18.896Z,8.9
2023-01-19T21:21:03.010Z,8.92
2023-01-19T21:26:46.904Z,8.92
2023-01-19T21:32:30.497Z,8.94
2023-01-19T21:38:13.915Z,8.94
2023-01-19T21:43:57.527Z,8.98
2023-01-19T21:49:40.906Z,8.98
2023-01-19T21:55:24.634Z,8.97
2023-01-19T22:01:09.122Z,8.99
2023-01-19T22:06:53.011Z,8.97
2023-01-19T22:12:37.592Z,8.98
2023-01-19T22:18:21.005Z,8.97
2023-01-19T22:24:04.583Z,8.97
2023-01-19T22:29:48.265Z,9.01
2023-01-19T22:35:31.762Z,9.02
2023-01-19T22:41:17.406Z,9.01
2023-01-19T22:47:00.803Z,9.04
2023-01-19T22:52:43.997Z,9.24
2023-01-19T22:58:27.577Z,9.21
2023-01-19T23:04:12.417Z,9.19
2023-01-19T23:09:56.059Z,9.17
2023-01-19T23:15:40.827Z,9.16
2023-01-19T23:21:25.280Z,9.16
2023-01-19T23:27:08.505Z,9.18
2023-01-19T23:32:52.288Z,9.28
2023-01-19T23:38:36.042Z,9.22
2023-01-19T23:44:20.702Z,9.18
2023-01-19T23:50:05.243Z,9.17
2023-01-19T23:55:48.677Z,9.17
